Time;durP1;ratioP1;P1;durP2;ratioP2;P2;SDS_P1;SDS_P2;PMS_P1;PMS_P2;Temp;Humidity;BMP_temperature;BMP_pressure;BME280_temperature;BME280_humidity;BME280_pressure;Samples;Min_cycle;Max_cycle;Signal;HPM_P1;HPM_P2
2022/04/11 00:01:36;;;;;;;;;;;;;;;9.07;44.79;100223.37;4414449;32;20050;-74
2022/04/11 00:04:03;;;;;;;;;;;;;;;9.20;44.66;100234.91;4425760;32;19994;-73
2022/04/11 00:06:30;;;;;;;;;;;;;;;9.27;44.46;100231.66;4427509;32;19997;-75
2022/04/11 00:08:57;;;;;;;;;;;;;;;9.19;44.91;100228.00;4421033;32;19986;-76
2022/04/11 00:11:24;;;;;;;;;;;;;;;9.47;44.27;100226.16;4412607;32;20004;-76
2022/04/11 00:13:51;;;;;;;;;;;;;;;9.31;44.67;100217.97;4407805;32;20151;-78
2022/04/11 00:16:17;;;;;;;;;;;;;;;9.37;44.44;100231.91;4398967;32;19996;-75
2022/04/11 00:18:45;;;;;;;;;;;;;;;8.97;45.74;100235.97;4410779;32;19986;-76
2022/04/11 00:21:12;;;;;;;;;;;;;;;8.94;45.60;100238.47;4409755;32;20003;-74
2022/04/11 00:23:38;;;;;;;;;;;;;;;9.16;45.01;100240.84;4401166;32;20431;-76
2022/04/11 00:26:05;;;;;;;;;;;;;;;9.03;45.16;100236.13;4435630;32;20000;-73
2022/04/11 00:28:32;;;;;;;;;;;;;;;8.82;45.90;100237.28;4420529;32;19993;-74
2022/04/11 00:30:59;;;;;;;;;;;;;;;8.93;45.11;100239.28;4403678;32;20006;-74
2022/04/11 00:33:28;;;;;;;;;;;;;;;9.09;44.62;100241.47;4403681;32;19997;-73
2022/04/11 00:35:55;;;;;;;;;;;;;;;9.03;44.78;100246.44;4398790;32;20310;-79
2022/04/11 00:38:22;;;;;;;;;;;;;;;8.85;45.46;100245.09;4398725;32;19997;-79
2022/04/11 00:40:49;;;;;;;;;;;;;;;8.74;45.59;100254.25;4406522;32;19986;-73
2022/04/11 00:43:29;;;;;;;;;;;;;;;8.95;44.95;100253.13;4413689;32;20012;-74
2022/04/11 00:45:56;;;;;;;;;;;;;;;8.90;44.96;100246.94;4427476;32;19990;-76
2022/04/11 00:48:23;;;;;;;;;;;;;;;8.95;44.70;100245.38;4435035;32;20003;-74
2022/04/11 00:50:51;;;;;;;;;;;;;;;8.88;45.02;100246.03;4418540;32;20002;-73
2022/04/11 00:53:18;;;;;;;;;;;;;;;8.56;45.86;100261.44;4418104;32;20034;-74
2022/04/11 00:55:45;;;;;;;;;;;;;;;8.93;44.96;100259.94;4424828;32;19970;-79
2022/04/11 00:58:12;;;;;;;;;;;;;;;8.79;45.34;100257.81;4438052;32;19985;-76
2022/04/11 01:00:40;;;;;;;;;;;;;;;8.51;46.19;100265.56;4418697;32;20001;-74
2022/04/11 01:03:07;;;;;;;;;;;;;;;8.59;46.12;100258.94;4416282;32;19990;-75
2022/04/11 01:05:34;;;;;;;;;;;;;;;8.84;45.16;100261.44;4415859;32;20022;-76
2022/04/11 01:08:05;;;;;;;;;;;;;;;8.58;46.31;100258.06;4408525;32;20035;-73
2022/04/11 01:10:32;;;;;;;;;;;;;;;8.45;46.56;100261.06;4427793;32;19981;-74
2022/04/11 01:13:00;;;;;;;;;;;;;;;8.58;46.07;100262.31;4402239;32;19986;-76
2022/04/11 01:15:27;;;;;;;;;;;;;;;8.68;45.88;100264.37;4427474;32;20754;-73
2022/04/11 01:17:54;;;;;;;;;;;;;;;8.21;46.32;100253.41;4405287;32;20790;-75
2022/04/11 01:20:21;;;;;;;;;;;;;;;8.58;46.05;100257.16;4407255;32;20045;-75
2022/04/11 01:22:49;;;;;;;;;;;;;;;8.53;46.06;100254.47;4407425;32;20005;-76
2022/04/11 01:25:17;;;;;;;;;;;;;;;8.43;46.19;100251.56;4406890;32;19982;-79
2022/04/11 01:27:44;;;;;;;;;;;;;;;8.41;46.36;100260.94;4081642;32;10003822;-73
2022/04/11 01:30:13;;;;;;;;;;;;;;;8.19;46.96;100262.78;4438876;32;20037;-77
2022/04/11 01:32:40;;;;;;;;;;;;;;;8.17;47.02;100264.47;4416430;32;20377;-75
2022/04/11 01:35:20;;;;;;;;;;;;;;;8.10;47.16;100270.22;4427572;32;19986;-74
2022/04/11 01:37:48;;;;;;;;;;;;;;;8.49;46.20;100267.22;4436701;32;19985;-75
2022/04/11 01:40:14;;;;;;;;;;;;;;;8.35;46.70;100272.78;4430174;32;19990;-74
2022/04/11 01:42:43;;;;;;;;;;;;;;;8.36;46.60;100286.56;4415893;32;20029;-78
2022/04/11 01:45:11;;;;;;;;;;;;;;;8.50;46.35;100284.44;4416171;32;19981;-77
2022/04/11 01:47:38;;;;;;;;;;;;;;;8.38;46.57;100285.81;4416167;32;20807;-77
2022/04/11 01:50:08;;;;;;;;;;;;;;;8.34;46.89;100288.22;4416251;32;19997;-74
2022/04/11 01:52:35;;;;;;;;;;;;;;;8.37;46.86;100284.03;4415644;32;20041;-79
2022/04/11 01:55:02;;;;;;;;;;;;;;;8.31;46.86;100291.56;4436390;32;20334;-74
2022/04/11 01:57:43;;;;;;;;;;;;;;;8.37;46.91;100289.19;4425715;32;19993;-75
2022/04/11 02:00:10;;;;;;;;;;;;;;;8.38;46.43;100285.81;4424607;32;19981;-75
2022/04/11 02:02:40;;;;;;;;;;;;;;;8.05;47.78;100295.00;4427028;32;20046;-73
2022/04/11 02:05:08;;;;;;;;;;;;;;;8.24;47.17;100286.16;4422125;32;19986;-77
2022/04/11 02:07:35;;;;;;;;;;;;;;;7.93;48.27;100291.16;4417698;32;19974;-74
2022/04/11 02:10:04;;;;;;;;;;;;;;;8.09;47.72;100297.72;4403555;32;20005;-75
2022/04/11 02:12:31;;;;;;;;;;;;;;;8.39;46.36;100294.41;4409858;32;19990;-76
2022/04/11 02:14:57;;;;;;;;;;;;;;;8.36;46.63;100297.75;4416936;32;20000;-78
2022/04/11 02:17:24;;;;;;;;;;;;;;;8.44;46.39;100299.72;4401189;32;20012;-73
2022/04/11 02:19:52;;;;;;;;;;;;;;;8.16;46.95;100303.94;4406415;32;19990;-78
2022/04/11 02:22:18;;;;;;;;;;;;;;;8.30;46.77;100297.56;4390452;32;19978;-75
2022/04/11 02:24:45;;;;;;;;;;;;;;;8.29;46.73;100295.78;4386484;32;20032;-77
2022/04/11 02:27:12;;;;;;;;;;;;;;;8.40;46.63;100297.91;4392297;32;20054;-75
2022/04/11 02:29:39;;;;;;;;;;;;;;;8.55;46.24;100300.94;4411943;32;20049;-74
2022/04/11 02:32:06;;;;;;;;;;;;;;;8.23;47.19;100313.66;4394316;32;20021;-75
2022/04/11 02:34:34;;;;;;;;;;;;;;;8.19;47.05;100313.50;4388670;32;19994;-74
2022/04/11 02:37:00;;;;;;;;;;;;;;;8.23;46.86;100308.50;4409493;32;19990;-73
2022/04/11 02:39:28;;;;;;;;;;;;;;;8.38;46.46;100306.44;4417082;32;20001;-73
2022/04/11 02:41:55;;;;;;;;;;;;;;;8.14;47.21;100310.78;4442446;32;20009;-75
2022/04/11 02:44:22;;;;;;;;;;;;;;;8.22;46.71;100314.47;4432823;32;20004;-73
2022/04/11 02:46:49;;;;;;;;;;;;;;;8.22;46.65;100314.47;4416351;32;19992;-74
2022/04/11 02:49:15;;;;;;;;;;;;;;;8.21;47.02;100312.72;4415319;32;20061;-73
2022/04/11 02:51:43;;;;;;;;;;;;;;;8.02;47.98;100308.66;4419675;32;20001;-73
2022/04/11 02:54:13;;;;;;;;;;;;;;;8.01;48.03;100319.81;4425257;32;20004;-73
2022/04/11 02:56:40;;;;;;;;;;;;;;;8.04;47.88;100319.91;4425953;32;19996;-73
2022/04/11 02:59:07;;;;;;;;;;;;;;;8.21;47.41;100323.03;4415604;32;20355;-73
2022/04/11 03:01:34;;;;;;;;;;;;;;;8.19;47.48;100324.69;4415527;32;19989;-73
2022/04/11 03:04:01;;;;;;;;;;;;;;;7.89;48.15;100330.56;4435974;32;20503;-73
2022/04/11 03:06:31;;;;;;;;;;;;;;;7.98;47.57;100324.84;4429935;32;19981;-73
2022/04/11 03:08:59;;;;;;;;;;;;;;;7.94;47.94;100322.97;4431576;32;19989;-74
2022/04/11 03:11:26;;;;;;;;;;;;;;;7.84;48.26;100326.94;4424635;32;20464;-73
2022/04/11 03:13:53;;;;;;;;;;;;;;;7.96;48.08;100323.03;4435387;32;20007;-73
2022/04/11 03:16:20;;;;;;;;;;;;;;;7.87;48.38;100332.19;4430641;32;19970;-74
2022/04/11 03:18:48;;;;;;;;;;;;;;;7.67;48.91;100328.06;4442087;32;20012;-73
2022/04/11 03:21:14;;;;;;;;;;;;;;;7.72;49.10;100334.22;4430882;32;20322;-74
2022/04/11 03:23:42;;;;;;;;;;;;;;;7.99;47.54;100331.75;4441753;32;20001;-73
2022/04/11 03:26:09;;;;;;;;;;;;;;;7.99;47.64;100325.72;4430940;32;20001;-73
2022/04/11 03:28:37;;;;;;;;;;;;;;;7.85;48.22;100338.16;4425410;32;19981;-74
2022/04/11 03:31:04;;;;;;;;;;;;;;;7.84;48.10;100336.38;4418623;32;19982;-73
2022/04/11 03:33:31;;;;;;;;;;;;;;;7.84;47.93;100342.41;4435029;32;19989;-73
2022/04/11 03:35:58;;;;;;;;;;;;;;;8.13;47.76;100339.94;4428804;32;20032;-74
2022/04/11 03:38:25;;;;;;;;;;;;;;;7.85;48.07;100344.16;4445865;32;20030;-74
2022/04/11 03:40:54;;;;;;;;;;;;;;;7.85;47.99;100349.31;4432101;32;20017;-73
2022/04/11 03:43:22;;;;;;;;;;;;;;;8.02;47.70;100356.75;4413895;32;19974;-74
2022/04/11 03:45:49;;;;;;;;;;;;;;;7.56;48.82;100355.13;4416780;32;19977;-72
2022/04/11 03:48:16;;;;;;;;;;;;;;;7.78;48.31;100362.78;4423363;32;20009;-73
2022/04/11 03:50:43;;;;;;;;;;;;;;;7.89;47.78;100361.50;4441272;32;20320;-72
2022/04/11 03:53:11;;;;;;;;;;;;;;;7.97;47.45;100358.28;4440680;32;20283;-73
2022/04/11 03:55:38;;;;;;;;;;;;;;;8.09;47.07;100359.59;4423558;32;20019;-73
2022/04/11 03:58:05;;;;;;;;;;;;;;;8.17;46.75;100362.47;4415036;32;20354;-72
2022/04/11 04:00:33;;;;;;;;;;;;;;;7.82;47.66;100367.25;4424754;32;20040;-72
2022/04/11 04:03:08;;;;;;;;;;;;;;;7.88;47.64;100369.16;4413275;32;20053;-73
2022/04/11 04:05:44;;;;;;;;;;;;;;;7.83;47.89;100374.16;4446844;32;20044;-73
2022/04/11 04:08:12;;;;;;;;;;;;;;;8.05;47.20;100369.75;4413015;32;19993;-73
2022/04/11 04:10:43;;;;;;;;;;;;;;;7.60;48.53;100369.88;4406693;32;20334;-72
2022/04/11 04:13:09;;;;;;;;;;;;;;;7.65;48.33;100376.06;4402129;32;19990;-73
2022/04/11 04:15:37;;;;;;;;;;;;;;;7.52;49.03;100379.00;4395227;32;19982;-74
2022/04/11 04:18:05;;;;;;;;;;;;;;;7.48;48.99;100372.00;4385066;32;20005;-74
2022/04/11 04:20:32;;;;;;;;;;;;;;;7.57;48.53;100377.50;4399565;32;20001;-76
2022/04/11 04:23:00;;;;;;;;;;;;;;;7.71;48.15;100381.44;4386307;32;20003;-74
2022/04/11 04:25:28;;;;;;;;;;;;;;;7.51;48.96;100387.56;4396622;32;19983;-75
2022/04/11 04:27:55;;;;;;;;;;;;;;;7.36;49.51;100393.03;4412606;32;20272;-73
2022/04/11 04:30:23;;;;;;;;;;;;;;;7.38;49.54;100396.53;4401604;32;20023;-74
2022/04/11 04:32:50;;;;;;;;;;;;;;;7.50;49.35;100397.00;4392153;32;20021;-74
2022/04/11 04:35:17;;;;;;;;;;;;;;;7.54;49.27;100393.72;4402519;32;19996;-74
2022/04/11 04:37:46;;;;;;;;;;;;;;;7.74;49.24;100402.16;4416496;32;20005;-74
2022/04/11 04:40:12;;;;;;;;;;;;;;;7.91;48.76;100395.94;4415253;32;20276;-74
2022/04/11 04:42:42;;;;;;;;;;;;;;;7.91;49.09;100395.94;4419078;32;19989;-74
2022/04/11 04:45:10;;;;;;;;;;;;;;;8.10;48.46;100399.16;4408133;32;20005;-74
2022/04/11 04:47:40;;;;;;;;;;;;;;;8.17;48.60;100408.88;4413620;32;20008;-73
2022/04/11 04:50:07;;;;;;;;;;;;;;;8.21;48.66;100402.97;4414712;32;20031;-74
2022/04/11 04:52:35;;;;;;;;;;;;;;;8.46;48.17;100401.28;4409760;32;20358;-73
2022/04/11 04:55:02;;;;;;;;;;;;;;;8.41;48.37;100419.16;4420934;32;20031;-73
2022/04/11 04:57:30;;;;;;;;;;;;;;;8.49;47.80;100407.41;4401331;32;20365;-75
2022/04/11 04:59:57;;;;;;;;;;;;;;;8.48;48.18;100409.94;4413025;32;20024;-73
2022/04/11 05:02:24;;;;;;;;;;;;;;;8.80;47.38;100414.44;4403210;32;19986;-73
2022/04/11 05:04:51;;;;;;;;;;;;;;;8.96;46.78;100404.59;4414088;32;20000;-72
2022/04/11 05:07:18;;;;;;;;;;;;;;;8.88;47.33;100413.84;4420492;32;19982;-73
2022/04/11 05:09:45;;;;;;;;;;;;;;;8.93;47.72;100415.72;4418065;32;20004;-74
2022/04/11 05:12:12;;;;;;;;;;;;;;;9.08;47.16;100410.16;4422548;32;20411;-74
2022/04/11 05:14:40;;;;;;;;;;;;;;;8.90;47.92;100422.47;4435319;32;19985;-76
2022/04/11 05:17:08;;;;;;;;;;;;;;;9.02;47.38;100409.97;4419539;32;19977;-74
2022/04/11 05:19:36;;;;;;;;;;;;;;;9.12;47.25;100416.28;4422503;32;20035;-73
2022/04/11 05:22:06;;;;;;;;;;;;;;;9.21;46.58;100414.88;4414440;32;20370;-73
2022/04/11 05:24:33;;;;;;;;;;;;;;;9.12;46.71;100422.34;4416485;32;20159;-74
2022/04/11 05:27:00;;;;;;;;;;;;;;;9.31;46.81;100419.47;4414261;32;20028;-73
2022/04/11 05:29:27;;;;;;;;;;;;;;;9.39;46.41;100421.44;4417307;32;20004;-73
2022/04/11 05:31:54;;;;;;;;;;;;;;;9.37;46.58;100425.69;4422857;32;19994;-74
2022/04/11 05:34:20;;;;;;;;;;;;;;;9.71;45.12;100418.09;4415293;32;19985;-73
2022/04/11 05:36:48;;;;;;;;;;;;;;;9.87;45.07;100421.13;4444314;32;19990;-73
2022/04/11 05:39:15;;;;;;;;;;;;;;;10.14;42.82;100421.88;4432542;32;20024;-73
2022/04/11 05:41:43;;;;;;;;;;;;;;;10.25;43.50;100420.47;4415807;32;19982;-73
2022/04/11 05:44:10;;;;;;;;;;;;;;;10.32;43.34;100431.00;4406558;32;19974;-72
2022/04/11 05:46:37;;;;;;;;;;;;;;;10.14;44.07;100427.03;4401250;32;19985;-72
2022/04/11 05:49:09;;;;;;;;;;;;;;;10.25;43.99;100425.62;4426558;32;20057;-72
2022/04/11 05:51:36;;;;;;;;;;;;;;;10.17;43.65;100421.94;4414852;32;19974;-71
2022/04/11 05:54:03;;;;;;;;;;;;;;;9.89;44.31;100419.44;4419455;32;19986;-73
2022/04/11 05:56:30;;;;;;;;;;;;;;;10.22;42.99;100424.69;4419796;32;20008;-80
2022/04/11 05:58:59;;;;;;;;;;;;;;;10.00;44.66;100428.38;4423559;32;20010;-71
2022/04/11 06:01:26;;;;;;;;;;;;;;;10.16;43.72;100430.56;4409914;32;19994;-71
2022/04/11 06:03:53;;;;;;;;;;;;;;;10.29;43.51;100433.50;4450376;32;20307;-72
2022/04/11 06:06:26;;;;;;;;;;;;;;;10.11;44.64;100421.78;4446824;32;20005;-72
2022/04/11 06:08:53;;;;;;;;;;;;;;;10.12;43.93;100418.38;4424658;32;19990;-73
2022/04/11 06:11:21;;;;;;;;;;;;;;;10.15;44.26;100413.28;4425321;32;20012;-71
2022/04/11 06:13:48;;;;;;;;;;;;;;;10.09;44.97;100418.28;4426142;32;20223;-70
2022/04/11 06:16:15;;;;;;;;;;;;;;;10.33;44.34;100417.22;4427588;32;20005;-71
2022/04/11 06:18:43;;;;;;;;;;;;;;;10.41;43.12;100420.91;4428048;32;20046;-73
2022/04/11 06:21:10;;;;;;;;;;;;;;;10.40;42.92;100414.84;4426933;32;19981;-71
2022/04/11 06:23:37;;;;;;;;;;;;;;;10.24;44.50;100413.53;4428722;32;20037;-71
2022/04/11 06:26:05;;;;;;;;;;;;;;;10.36;43.45;100406.94;4430353;32;19990;-72
2022/04/11 06:28:32;;;;;;;;;;;;;;;10.44;43.16;100413.22;4438526;32;20003;-71
2022/04/11 06:30:59;;;;;;;;;;;;;;;10.62;42.96;100411.06;4413211;32;20007;-71
2022/04/11 06:33:26;;;;;;;;;;;;;;;10.76;42.73;100407.97;4426700;32;19993;-72
2022/04/11 06:35:53;;;;;;;;;;;;;;;11.07;43.30;100406.97;4421787;32;20013;-71
2022/04/11 06:38:20;;;;;;;;;;;;;;;11.57;40.55;100407.22;4426313;32;19994;-71
2022/04/11 06:40:49;;;;;;;;;;;;;;;11.68;40.49;100410.91;4426564;32;19986;-72
2022/04/11 06:43:16;;;;;;;;;;;;;;;11.97;40.77;100408.94;4414756;32;19992;-76
2022/04/11 06:45:44;;;;;;;;;;;;;;;12.33;39.62;100407.88;4431772;32;20779;-74
2022/04/11 06:48:13;;;;;;;;;;;;;;;12.54;39.06;100408.25;4429388;32;19989;-82
2022/04/11 06:50:40;;;;;;;;;;;;;;;13.06;38.82;100407.34;4414417;32;20026;-79
2022/04/11 06:53:07;;;;;;;;;;;;;;;13.27;37.19;100415.47;4416346;32;20026;-73
2022/04/11 06:55:34;;;;;;;;;;;;;;;13.64;37.66;100413.37;4422777;32;20040;-73
2022/04/11 06:58:01;;;;;;;;;;;;;;;13.99;36.01;100425.97;4416898;32;20009;-81
2022/04/11 07:00:29;;;;;;;;;;;;;;;14.35;35.43;100421.13;4417155;32;20005;-76
2022/04/11 07:02:56;;;;;;;;;;;;;;;14.40;34.32;100422.06;4424802;32;20079;-76
2022/04/11 07:05:23;;;;;;;;;;;;;;;14.36;35.18;100425.50;4407637;32;19982;-81
2022/04/11 07:07:50;;;;;;;;;;;;;;;14.38;37.07;100421.16;4413524;32;20040;-77
2022/04/11 07:10:17;;;;;;;;;;;;;;;14.46;35.20;100429.06;4415502;32;19978;-75
2022/04/11 07:12:43;;;;;;;;;;;;;;;15.02;34.08;100425.22;4423623;32;20808;-81
2022/04/11 07:15:11;;;;;;;;;;;;;;;15.13;34.02;100423.56;4415205;32;19997;-81
2022/04/11 07:17:38;;;;;;;;;;;;;;;15.23;34.44;100429.72;4416143;32;20016;-77
2022/04/11 07:20:05;;;;;;;;;;;;;;;15.20;34.35;100420.13;4404596;32;20023;-79
2022/04/11 07:22:32;;;;;;;;;;;;;;;15.13;34.97;100423.56;4421430;32;20293;-78
2022/04/11 07:25:00;;;;;;;;;;;;;;;15.22;33.91;100423.63;4413305;32;20357;-76
2022/04/11 07:27:27;;;;;;;;;;;;;;;15.26;33.97;100425.41;4428629;32;20639;-71
2022/04/11 07:29:54;;;;;;;;;;;;;;;15.51;35.46;100420.34;4403373;32;20347;-74
2022/04/11 07:32:20;;;;;;;;;;;;;;;15.23;35.54;100427.97;4408466;32;20029;-79
2022/04/11 07:34:48;;;;;;;;;;;;;;;15.69;33.98;100423.03;4418909;32;19985;-75
2022/04/11 07:37:15;;;;;;;;;;;;;;;15.91;33.35;100425.75;4410800;32;20040;-75
2022/04/11 07:39:42;;;;;;;;;;;;;;;16.13;32.14;100416.25;4404197;32;19978;-78
2022/04/11 07:42:08;;;;;;;;;;;;;;;16.32;31.91;100417.16;4414612;32;20076;-75
2022/04/11 07:44:36;;;;;;;;;;;;;;;16.10;33.31;100422.34;4400043;32;20004;-78
2022/04/11 07:47:03;;;;;;;;;;;;;;;16.34;34.62;100425.88;4404390;32;20120;-79
2022/04/11 07:49:29;;;;;;;;;;;;;;;16.54;32.88;100418.94;4406955;32;20036;-76
2022/04/11 07:51:56;;;;;;;;;;;;;;;16.62;31.69;100422.41;4399186;32;20024;-76
2022/04/11 07:54:23;;;;;;;;;;;;;;;16.71;33.36;100417.19;4407553;32;20054;-77
2022/04/11 07:56:50;;;;;;;;;;;;;;;16.52;32.33;100420.66;4403754;32;19986;-75
2022/04/11 07:59:17;;;;;;;;;;;;;;;17.10;30.37;100415.50;4400812;32;20371;-75
2022/04/11 08:01:44;;;;;;;;;;;;;;;17.11;30.63;100412.00;4408713;32;19996;-84
2022/04/11 08:04:11;;;;;;;;;;;;;;;16.94;30.33;100408.50;4407634;32;20002;-83
2022/04/11 08:06:38;;;;;;;;;;;;;;;16.47;32.50;100422.44;4400908;32;19991;-86
2022/04/11 08:09:05;;;;;;;;;;;;;;;16.59;32.06;100419.81;4411674;32;20000;-74
2022/04/11 08:11:32;;;;;;;;;;;;;;;16.74;32.73;100421.56;4409479;32;19978;-82
2022/04/11 08:13:59;;;;;;;;;;;;;;;16.71;31.70;100426.78;4415584;32;20024;-79
2022/04/11 08:16:26;;;;;;;;;;;;;;;16.62;32.64;100427.63;4407819;32;20427;-76
2022/04/11 08:18:53;;;;;;;;;;;;;;;17.24;30.29;100427.69;4405465;32;20082;-77
2022/04/11 08:21:20;;;;;;;;;;;;;;;17.06;30.93;100424.19;4410590;32;19981;-74
2022/04/11 08:23:46;;;;;;;;;;;;;;;17.26;30.69;100415.44;4416511;32;20341;-82
2022/04/11 08:26:14;;;;;;;;;;;;;;;16.80;31.18;100425.97;4415237;32;19990;-78
2022/04/11 08:28:41;;;;;;;;;;;;;;;16.67;31.46;100431.16;4407410;32;19998;-73
2022/04/11 08:31:08;;;;;;;;;;;;;;;16.88;31.71;100421.59;4410398;32;19978;-77
2022/04/11 08:33:35;;;;;;;;;;;;;;;17.48;29.35;100421.50;4414376;32;19994;-74
2022/04/11 08:36:03;;;;;;;;;;;;;;;17.14;29.19;100422.44;4411490;32;20040;-73
2022/04/11 08:38:29;;;;;;;;;;;;;;;17.13;32.01;100420.72;4403905;32;20358;-77
2022/04/11 08:40:56;;;;;;;;;;;;;;;17.48;30.65;100422.34;4400672;32;19981;-79
2022/04/11 08:43:24;;;;;;;;;;;;;;;17.39;29.16;100422.41;4414374;32;20022;-84
2022/04/11 08:45:53;;;;;;;;;;;;;;;17.01;31.71;100420.72;4418791;32;20039;-81
2022/04/11 08:48:24;;;;;;;;;;;;;;;16.97;33.26;100421.56;4411933;32;19994;-80
2022/04/11 08:50:51;;;;;;;;;;;;;;;17.22;32.07;100418.94;4401583;32;19998;-80
2022/04/11 08:53:21;;;;;;;;;;;;;;;17.32;30.06;100418.91;4406555;32;20052;-81
2022/04/11 08:55:49;;;;;;;;;;;;;;;17.72;30.49;100404.84;4418850;32;20860;-77
2022/04/11 08:58:16;;;;;;;;;;;;;;;17.59;30.20;100410.13;4420083;32;20008;-74
2022/04/11 09:00:42;;;;;;;;;;;;;;;17.74;30.97;100408.31;4406677;32;19990;-80
2022/04/11 09:03:09;;;;;;;;;;;;;;;17.41;31.58;100410.19;4401300;32;19989;-84
2022/04/11 09:05:36;;;;;;;;;;;;;;;17.73;29.04;100401.34;4412389;32;19990;-78
2022/04/11 09:08:03;;;;;;;;;;;;;;;17.28;30.25;100403.22;4421407;32;20001;-84
2022/04/11 09:10:32;;;;;;;;;;;;;;;16.28;33.34;100395.41;4426537;32;20023;-85
2022/04/11 09:13:01;;;;;;;;;;;;;;;17.11;31.89;100406.75;4427179;32;19985;-83
2022/04/11 09:15:28;;;;;;;;;;;;;;;17.35;29.39;100402.34;4410914;32;19990;-82
2022/04/11 09:17:56;;;;;;;;;;;;;;;17.39;30.00;100396.25;4412618;32;20377;-83
2022/04/11 09:20:27;;;;;;;;;;;;;;;17.46;29.42;100397.97;4418228;32;19984;-80
2022/04/11 09:22:54;;;;;;;;;;;;;;;17.40;30.16;100391.00;4412326;32;20036;-79
2022/04/11 09:25:22;;;;;;;;;;;;;;;17.25;29.37;100392.78;4412508;32;19989;-77
2022/04/11 09:28:02;;;;;;;;;;;;;;;16.86;29.61;100394.59;4418766;32;19996;-79
2022/04/11 09:30:32;;;;;;;;;;;;;;;16.54;30.88;100395.41;4423201;32;20505;-81
2022/04/11 09:33:00;;;;;;;;;;;;;;;16.15;31.85;100407.56;4427806;32;20032;-78
2022/04/11 09:35:30;;;;;;;;;;;;;;;15.98;31.91;100402.25;4407533;32;19993;-80
2022/04/11 09:38:16;;;;;;;;;;;;;;;15.80;35.91;100391.78;4399168;32;20091;-81
2022/04/11 09:40:44;;;;;;;;;;;;;;;16.03;32.17;100399.69;4425652;32;19986;-74
2022/04/11 09:43:12;;;;;;;;;;;;;;;16.22;32.34;100391.03;4427603;32;19986;-76
2022/04/11 09:45:49;;;;;;;;;;;;;;;16.57;31.54;100392.81;4413154;32;19990;-75
2022/04/11 09:48:17;;;;;;;;;;;;;;;17.05;29.35;100385.84;4418217;32;19986;-79
2022/04/11 09:50:44;;;;;;;;;;;;;;;16.71;31.06;100390.19;4426944;32;19977;-76
2022/04/11 09:53:15;;;;;;;;;;;;;;;16.54;30.55;100390.19;4423701;32;20001;-76
2022/04/11 09:55:43;;;;;;;;;;;;;;;16.60;29.91;100398.03;4401124;32;19986;-79
2022/04/11 09:58:09;;;;;;;;;;;;;;;15.81;33.24;100394.38;4412461;32;20035;-82
2022/04/11 10:00:37;;;;;;;;;;;;;;;16.11;31.63;100397.94;4400906;32;20952;-80
2022/04/11 10:03:05;;;;;;;;;;;;;;;16.17;31.81;100400.56;4411915;32;19994;-80
2022/04/11 10:05:33;;;;;;;;;;;;;;;15.66;35.25;100396.03;4412121;32;20030;-75
2022/04/11 10:08:00;;;;;;;;;;;;;;;16.15;31.60;100389.28;4412129;32;20036;-80
2022/04/11 10:10:27;;;;;;;;;;;;;;;15.79;31.28;100393.53;4421643;32;19982;-74
2022/04/11 10:12:53;;;;;;;;;;;;;;;15.72;34.61;100398.69;4410049;32;19994;-78
2022/04/11 10:15:21;;;;;;;;;;;;;;;15.63;31.35;100394.28;4414416;32;19993;-84
2022/04/11 10:17:56;;;;;;;;;;;;;;;15.41;32.94;100397.66;4414411;32;19978;-81
2022/04/11 10:20:24;;;;;;;;;;;;;;;15.43;30.83;100401.12;4441807;32;20033;-76
2022/04/11 10:22:54;;;;;;;;;;;;;;;15.79;29.86;100388.31;4416995;32;19998;-81
2022/04/11 10:25:21;;;;;;;;;;;;;;;15.93;29.96;100403.13;4417580;32;20034;-85
2022/04/11 10:27:48;;;;;;;;;;;;;;;15.56;31.38;100398.59;4417072;32;20005;-84
2022/04/11 10:30:30;;;;;;;;;;;;;;;15.59;33.79;100397.75;4420372;32;20024;-83
2022/04/11 10:32:57;;;;;;;;;;;;;;;16.09;29.70;100394.47;4416046;32;20036;-76
2022/04/11 10:35:30;;;;;;;;;;;;;;;16.63;29.63;100398.03;4416503;32;20248;-73
2022/04/11 10:37:57;;;;;;;;;;;;;;;15.38;30.33;100393.31;4433639;32;20334;-84
2022/04/11 10:40:26;;;;;;;;;;;;;;;16.00;28.87;100391.84;4425125;32;20008;-82
2022/04/11 10:42:59;;;;;;;;;;;;;;;15.61;31.10;100396.03;4423911;32;20052;-81
2022/04/11 10:45:29;;;;;;;;;;;;;;;15.74;29.63;100392.63;4426458;32;19989;-83
2022/04/11 10:47:56;;;;;;;;;;;;;;;16.00;27.60;100399.69;4411471;32;19990;-82
2022/04/11 10:50:24;;;;;;;;;;;;;;;15.89;26.77;100401.38;4430525;32;19994;-75
2022/04/11 10:52:55;;;;;;;;;;;;;;;15.78;26.21;100388.28;4431379;32;19994;-85
2022/04/11 10:55:23;;;;;;;;;;;;;;;15.31;26.78;100402.81;4422855;32;20004;-74
2022/04/11 10:57:55;;;;;;;;;;;;;;;15.48;28.55;100389.00;4421848;32;19977;-75
2022/04/11 11:00:23;;;;;;;;;;;;;;;15.85;27.27;100386.56;4415745;32;19973;-85
2022/04/11 11:05:24;;;;;;;;;;;;;;;15.74;28.12;100390.00;4422298;32;20000;-79
2022/04/11 11:08:07;;;;;;;;;;;;;;;15.52;29.94;100390.75;4429125;32;19986;-81
2022/04/11 11:10:40;;;;;;;;;;;;;;;15.29;30.01;100388.91;4430516;32;19981;-81
2022/04/11 11:13:22;;;;;;;;;;;;;;;15.34;29.54;100392.38;4446578;32;20817;-81
2022/04/11 11:15:49;;;;;;;;;;;;;;;15.79;27.17;100380.47;4444127;32;20072;-80
2022/04/11 11:18:17;;;;;;;;;;;;;;;16.36;26.84;100379.72;4423755;32;20343;-76
2022/04/11 11:20:57;;;;;;;;;;;;;;;16.44;27.52;100368.41;4415737;32;19974;-81
2022/04/11 11:23:26;;;;;;;;;;;;;;;15.79;27.28;100377.88;4403556;32;20044;-84
2022/04/11 11:25:53;;;;;;;;;;;;;;;16.14;26.55;100377.06;4426686;32;19986;-75
2022/04/11 11:28:20;;;;;;;;;;;;;;;16.01;28.32;100372.69;4400609;32;19989;-72
2022/04/11 11:30:47;;;;;;;;;;;;;;;16.22;27.24;100375.34;4426744;32;19978;-83
2022/04/11 11:33:15;;;;;;;;;;;;;;;16.40;27.72;100366.66;4415083;32;20021;-78
2022/04/11 11:35:46;;;;;;;;;;;;;;;16.59;28.50;100364.94;4407813;32;20581;-82
2022/04/11 11:38:15;;;;;;;;;;;;;;;16.69;26.51;100369.28;4415387;32;20004;-80
2022/04/11 11:40:43;;;;;;;;;;;;;;;16.41;27.24;100367.53;4417935;32;20020;-73
2022/04/11 11:43:11;;;;;;;;;;;;;;;16.37;27.21;100363.16;4409957;32;20026;-76
2022/04/11 11:45:41;;;;;;;;;;;;;;;16.57;25.31;100361.44;4399933;32;20291;-76
2022/04/11 11:48:20;;;;;;;;;;;;;;;16.47;28.12;100359.72;4392548;32;20035;-80
2022/04/11 11:50:48;;;;;;;;;;;;;;;16.55;25.79;100352.72;4391178;32;20429;-80
2022/04/11 11:53:15;;;;;;;;;;;;;;;16.27;30.62;100376.25;4391761;32;20034;-85
2022/04/11 11:55:51;;;;;;;;;;;;;;;16.83;27.01;100357.97;4355501;32;20113;-78
2022/04/11 11:58:18;;;;;;;;;;;;;;;16.40;27.33;100358.84;4391940;32;19978;-82
2022/04/11 12:00:49;;;;;;;;;;;;;;;15.73;30.14;100359.56;4360340;32;20028;-81
2022/04/11 12:06:02;;;;;;;;;;;;;;;16.00;30.29;100353.53;4377017;32;20338;-86
2022/04/11 12:08:32;;;;;;;;;;;;;;;15.64;29.12;100351.66;4383984;32;19990;-80
2022/04/11 12:10:59;;;;;;;;;;;;;;;16.65;26.70;100344.00;4398928;32;19982;-83
2022/04/11 12:13:27;;;;;;;;;;;;;;;16.87;26.35;100351.84;4397827;32;20008;-83
2022/04/11 12:16:08;;;;;;;;;;;;;;;16.26;27.13;100361.41;4399537;32;19982;-82
2022/04/11 12:18:51;;;;;;;;;;;;;;;16.94;25.80;100348.34;4398115;32;20319;-84
2022/04/11 12:21:18;;;;;;;;;;;;;;;16.94;27.28;100361.44;4424302;32;19997;-83
2022/04/11 12:23:48;;;;;;;;;;;;;;;16.53;29.12;100359.72;4440779;32;20538;-75
2022/04/11 12:26:23;;;;;;;;;;;;;;;17.08;27.65;100351.84;4438085;32;20004;-82
2022/04/11 12:28:51;;;;;;;;;;;;;;;16.98;25.65;100342.28;4428882;32;19994;-73
2022/04/11 12:31:18;;;;;;;;;;;;;;;17.22;24.94;100332.59;4414403;32;19993;-85
2022/04/11 12:33:49;;;;;;;;;;;;;;;17.41;25.96;100326.44;4428556;32;20120;-81
2022/04/11 12:36:16;;;;;;;;;;;;;;;16.66;27.48;100335.31;4402274;32;19994;-74
2022/04/11 12:38:56;;;;;;;;;;;;;;;16.41;29.15;100324.00;4427959;32;20043;-81
2022/04/11 12:41:27;;;;;;;;;;;;;;;16.82;25.85;100319.63;4407270;32;21527;-87
2022/04/11 12:44:07;;;;;;;;;;;;;;;17.41;23.59;100323.81;4440542;32;20021;-82
2022/04/11 12:46:35;;;;;;;;;;;;;;;17.03;23.40;100316.97;4425735;32;20046;-77
2022/04/11 12:49:02;;;;;;;;;;;;;;;16.82;26.90;100320.50;4399036;32;19985;-73
2022/04/11 12:51:29;;;;;;;;;;;;;;;16.91;25.75;100316.97;4415150;32;20037;-74